Time;durP1;ratioP1;P1;durP2;ratioP2;P2;SDS_P1;SDS_P2;PMS_P1;PMS_P2;Temp;Humidity;BMP_temperature;BMP_pressure;BME280_temperature;BME280_humidity;BME280_pressure;Samples;Min_cycle;Max_cycle;Signal;HPM_P1;HPM_P2
2023/04/09 00:01:57;;;;;;;165.13;42.08;;;3.10;99.90;;;3.99;100.00;101892.69;5035349;28;20052;-76
2023/04/09 00:04:30;;;;;;;191.23;39.65;;;3.20;99.90;;;3.95;100.00;101901.19;5026626;28;20029;-76
2023/04/09 00:06:56;;;;;;;155.70;41.05;;;3.20;99.90;;;3.90;100.00;101898.94;5032274;28;20060;-76
2023/04/09 00:09:22;;;;;;;215.32;47.40;;;3.30;99.90;;;3.79;100.00;101872.94;5048540;28;20029;-76
2023/04/09 00:11:47;;;;;;;235.48;48.35;;;3.30;99.90;;;3.90;100.00;101888.16;5032996;28;20099;-77
2023/04/09 00:14:13;;;;;;;392.90;53.65;;;3.30;99.90;;;4.15;100.00;101894.81;5032624;28;20037;-77
2023/04/09 00:16:39;;;;;;;261.33;49.85;;;3.30;99.90;;;4.09;100.00;101862.97;5032561;28;20030;-77
2023/04/09 00:19:05;;;;;;;226.30;55.17;;;3.40;99.90;;;4.14;100.00;101895.78;5032523;28;20131;-77
2023/04/09 00:21:32;;;;;;;366.23;64.80;;;3.40;99.90;;;4.15;100.00;101881.28;5031835;28;20030;-77
2023/04/09 00:23:58;;;;;;;333.05;65.32;;;3.40;99.90;;;4.12;100.00;101880.75;5014692;28;20072;-77
2023/04/09 00:26:23;;;;;;;344.75;67.35;;;3.40;99.90;;;4.25;100.00;101891.25;5031092;28;20071;-77
2023/04/09 00:28:49;;;;;;;422.67;71.18;;;3.40;99.90;;;4.32;100.00;101889.66;5031194;28;20034;-77
2023/04/09 00:31:15;;;;;;;275.48;63.25;;;3.40;99.90;;;4.22;100.00;101868.06;5031971;28;20064;-77
2023/04/09 00:33:41;;;;;;;385.67;68.72;;;3.40;99.90;;;4.32;100.00;101885.09;5030983;28;20045;-77
2023/04/09 00:36:07;;;;;;;366.15;68.25;;;3.40;99.90;;;4.36;100.00;101877.56;5030882;28;20033;-77
2023/04/09 00:38:32;;;;;;;467.85;70.05;;;3.40;99.90;;;4.25;100.00;101853.44;5031822;28;20049;-77
2023/04/09 00:40:58;;;;;;;118.50;50.22;;;3.30;99.90;;;4.41;100.00;101891.50;5025129;28;20052;-77
2023/04/09 00:43:24;;;;;;;283.05;63.50;;;3.40;99.90;;;4.45;100.00;101883.94;5032030;28;20049;-77
2023/04/09 00:45:50;;;;;;;250.68;61.22;;;3.40;99.90;;;4.39;100.00;101877.28;5031853;28;20310;-77
2023/04/09 00:48:17;;;;;;;254.85;59.50;;;3.40;99.90;;;4.43;100.00;101881.38;5031618;28;20037;-78
2023/04/09 00:50:43;;;;;;;92.22;43.45;;;3.50;99.90;;;4.31;100.00;101861.78;5031428;28;20034;-77
2023/04/09 00:53:11;;;;;;;139.90;49.42;;;3.50;99.90;;;4.44;100.00;101874.97;5029403;28;20034;-77
2023/04/09 00:55:41;;;;;;;184.15;48.78;;;3.50;99.90;;;4.16;100.00;101872.19;5030215;28;20100;-77
2023/04/09 00:58:07;;;;;;;157.45;45.72;;;3.60;99.90;;;4.03;100.00;101871.66;5030556;28;20040;-77
2023/04/09 01:00:34;;;;;;;92.95;41.05;;;3.60;99.90;;;4.13;100.00;101861.69;5031719;28;20037;-77
2023/04/09 01:03:04;;;;;;;217.65;50.53;;;3.60;99.90;;;4.12;100.00;101868.06;5031162;28;20099;-77
2023/04/09 01:06:30;;;;;;;91.25;37.83;;;3.50;99.90;;;4.07;100.00;101851.47;5031348;28;20124;-77
2023/04/09 01:09:08;;;;;;;136.73;43.50;;;3.50;99.90;;;4.16;100.00;101868.66;5025027;28;20109;-77
2023/04/09 01:12:09;;;;;;;99.45;35.50;;;3.40;99.90;;;4.18;100.00;101875.59;5029787;28;20042;-77
2023/04/09 01:15:10;;;;;;;72.82;36.42;;;3.30;99.90;;;4.18;100.00;101867.50;5027711;28;20397;-77
2023/04/09 01:18:10;;;;;;;79.50;36.97;;;3.30;99.90;;;4.25;100.00;101877.75;5027999;28;20378;-77
2023/04/09 01:20:56;;;;;;;84.82;36.67;;;3.20;99.90;;;4.08;100.00;101879.31;5020123;28;20103;-77
2023/04/09 01:23:58;;;;;;;139.20;42.92;;;3.30;99.90;;;4.17;100.00;101887.41;5030595;28;20105;-77
2023/04/09 01:27:02;;;;;;;120.30;44.33;;;3.20;99.90;;;4.14;100.00;101855.28;5026373;28;20033;-77
2023/04/09 01:29:50;;;;;;;80.35;37.00;;;3.20;99.90;;;4.22;100.00;101867.19;5018071;28;20616;-77
2023/04/09 01:32:19;;;;;;;79.95;38.25;;;3.20;99.90;;;4.37;100.00;101879.28;5029247;28;20036;-76
2023/04/09 01:34:48;;;;;;;312.38;55.83;;;3.20;99.90;;;4.33;100.00;101883.25;5029692;28;20155;-76
2023/04/09 01:37:15;;;;;;;;;;;3.20;99.90;;;4.28;100.00;101875.59;5030439;28;20173;-76
2023/04/09 01:39:41;;;;;;;208.60;50.45;;;3.20;99.90;;;4.18;100.00;101878.28;5036385;28;19924;-76
2023/04/09 01:42:11;;;;;;;78.07;37.22;;;3.20;99.90;;;4.10;100.00;101861.09;5028389;28;20025;-76
2023/04/09 01:44:40;;;;;;;181.70;46.22;;;3.20;99.90;;;4.21;100.00;101870.91;5029725;28;20084;-76
2023/04/09 01:47:08;;;;;;;187.52;46.03;;;3.20;99.90;;;4.18;100.00;101878.28;5023915;28;20033;-76
2023/04/09 01:49:35;;;;;;;118.40;37.85;;;3.20;99.90;;;4.20;100.00;101874.59;5028782;28;20116;-76
2023/04/09 01:52:02;;;;;;;60.10;32.90;;;3.20;99.90;;;4.18;100.00;101864.78;5028465;28;20076;-76
2023/04/09 01:54:27;;;;;;;63.22;32.65;;;3.20;99.90;;;4.36;100.00;101876.69;5026444;28;20401;-76
2023/04/09 01:56:56;;;;;;;196.40;42.83;;;3.30;99.90;;;4.32;100.00;101870.75;5028671;28;20389;-76
2023/04/09 01:59:22;;;;;;;224.18;43.80;;;3.20;99.90;;;4.13;100.00;101858.16;5029772;28;20566;-76
2023/04/09 02:02:06;;;;;;;149.30;41.20;;;3.20;99.90;;;4.13;100.00;101858.16;5041963;28;20041;-75
2023/04/09 02:04:37;;;;;;;176.43;41.38;;;3.20;99.90;;;4.18;100.00;101862.09;5039854;28;20141;-76
2023/04/09 02:07:17;;;;;;;326.00;48.25;;;3.10;99.90;;;4.06;100.00;101848.88;5029066;28;20093;-76
2023/04/09 02:09:47;;;;;;;153.55;41.55;;;3.10;99.90;;;4.28;100.00;101858.53;5024672;28;20044;-76
2023/04/09 02:12:18;;;;;;;83.00;34.47;;;3.10;99.90;;;4.30;100.00;101851.13;5028460;28;20111;-76
2023/04/09 02:14:47;;;;;;;282.40;45.13;;;3.20;99.90;;;4.31;100.00;101836.63;5042686;28;20034;-75
2023/04/09 02:17:13;;;;;;;163.27;40.58;;;3.10;99.90;;;4.22;100.00;101842.88;5029375;28;20037;-75
2023/04/09 02:19:45;;;;;;;250.80;42.47;;;3.10;99.90;;;4.28;100.00;101853.97;5044292;28;20046;-76
2023/04/09 02:22:14;;;;;;;312.58;46.17;;;3.10;99.90;;;4.05;100.00;101853.47;5044564;28;20489;-76
2023/04/09 02:24:40;;;;;;;223.35;42.65;;;3.00;99.90;;;3.93;100.00;101850.06;5029270;28;20033;-76
2023/04/09 02:27:07;;;;;;;195.00;43.42;;;3.00;99.90;;;3.85;100.00;101863.44;5028757;28;20327;-76
2023/04/09 02:29:33;;;;;;;190.55;43.55;;;2.90;99.90;;;3.64;100.00;101834.72;5027293;28;20040;-76
2023/04/09 02:31:59;;;;;;;175.55;42.25;;;2.90;99.90;;;3.73;100.00;101862.72;5029132;28;20501;-75
2023/04/09 02:34:25;;;;;;;185.98;43.42;;;2.80;99.90;;;3.59;100.00;101845.09;5028505;28;20040;-76
2023/04/09 02:36:51;;;;;;;184.88;45.45;;;2.80;99.90;;;3.69;100.00;101858.56;5028717;28;20037;-76
2023/04/09 02:39:16;;;;;;;152.00;41.92;;;2.80;99.90;;;3.68;100.00;101855.03;5044256;28;20091;-76
2023/04/09 02:41:43;;;;;;;88.57;37.40;;;2.80;99.90;;;3.73;100.00;101860.00;5030844;28;20508;-76
2023/04/09 02:44:09;;;;;;;199.90;44.78;;;2.80;99.90;;;3.68;100.00;101862.25;5045952;28;20103;-75
2023/04/09 02:46:35;;;;;;;70.30;35.30;;;2.70;99.90;;;3.66;100.00;101843.53;5032323;28;20123;-75
2023/04/09 02:49:01;;;;;;;192.18;44.22;;;2.80;99.90;;;3.75;100.00;101863.44;5032062;28;20022;-75
2023/04/09 02:51:27;;;;;;;137.80;40.58;;;2.70;99.90;;;3.65;100.00;101840.97;5032690;28;20389;-76
2023/04/09 02:53:52;;;;;;;83.70;37.42;;;2.80;99.90;;;3.73;100.00;101846.53;5026799;28;20038;-76
2023/04/09 02:56:18;;;;;;;178.95;45.65;;;2.80;99.90;;;3.82;100.00;101851.06;5045140;28;20034;-76
2023/04/09 02:58:44;;;;;;;121.00;41.80;;;2.80;99.90;;;3.87;100.00;101862.28;5045832;28;20175;-75
2023/04/09 03:01:10;;;;;;;96.75;36.22;;;2.80;99.90;;;3.81;100.00;101857.44;5038726;28;20469;-76
2023/04/09 03:03:37;;;;;;;321.13;51.20;;;2.80;99.90;;;3.77;100.00;101857.88;5028494;28;20057;-75
2023/04/09 03:06:03;;;;;;;117.25;42.10;;;2.80;99.90;;;3.74;100.00;101849.06;5029613;28;20037;-75
2023/04/09 03:08:29;;;;;;;150.68;42.47;;;2.80;99.90;;;3.72;100.00;101842.94;5030061;28;20042;-76
2023/04/09 03:10:55;;;;;;;84.57;35.35;;;2.80;99.90;;;3.73;100.00;101843.81;5030592;28;20049;-76
2023/04/09 03:13:21;;;;;;;93.13;35.22;;;2.80;99.90;;;3.65;100.00;101831.03;5037460;28;20037;-76
2023/04/09 03:15:51;;;;;;;62.97;32.85;;;2.80;99.90;;;3.66;100.00;101839.97;5030932;28;20034;-76
2023/04/09 03:18:17;;;;;;;145.48;37.88;;;2.80;99.90;;;3.69;100.00;101836.97;5031369;28;20038;-75
2023/04/09 03:20:43;;;;;;;213.90;42.03;;;2.80;99.90;;;3.57;100.00;101825.47;5031167;28;20045;-76
2023/04/09 03:23:11;;;;;;;190.38;39.28;;;2.80;99.90;;;3.48;100.00;101815.53;5030861;28;20025;-76
2023/04/09 03:25:42;;;;;;;120.93;36.47;;;2.80;99.90;;;3.64;100.00;101840.13;5029916;28;20041;-76
2023/04/09 03:28:11;;;;;;;103.18;33.55;;;2.80;99.90;;;3.68;100.00;101846.94;5031814;28;20033;-75
2023/04/09 03:30:41;;;;;;;100.75;34.83;;;2.80;99.90;;;3.70;100.00;101844.06;5048002;28;20032;-77
2023/04/09 03:33:07;;;;;;;195.68;42.35;;;2.80;99.90;;;3.64;100.00;101837.41;5030663;28;20051;-75
2023/04/09 03:35:42;;;;;;;152.48;39.60;;;2.80;99.90;;;3.66;100.00;101838.13;5031524;28;20091;-75
2023/04/09 03:38:09;;;;;;;203.43;39.90;;;2.80;99.90;;;3.73;100.00;101839.25;5030422;28;20502;-75
2023/04/09 03:40:35;;;;;;;322.92;45.08;;;2.80;99.90;;;3.81;100.00;101835.84;5041458;28;20046;-75
2023/04/09 03:43:01;;;;;;;260.25;43.70;;;2.80;99.90;;;3.69;100.00;101839.66;5028537;28;20030;-75
2023/04/09 03:45:28;;;;;;;277.15;43.75;;;2.80;99.90;;;3.49;100.00;101830.72;5031201;28;20025;-75
2023/04/09 03:48:08;;;;;;;155.93;40.25;;;2.80;99.90;;;3.59;100.00;101837.00;5031176;28;20451;-75
2023/04/09 03:50:41;;;;;;;128.77;38.13;;;2.70;99.90;;;3.55;100.00;101833.72;5047421;28;20033;-76
2023/04/09 03:53:10;;;;;;;193.38;43.20;;;2.70;99.90;;;3.59;100.00;101832.44;5029202;28;20029;-76
2023/04/09 03:55:36;;;;;;;80.90;34.72;;;2.70;99.90;;;3.67;100.00;101839.84;5033286;28;20029;-75
2023/04/09 03:58:07;;;;;;;175.43;39.25;;;2.80;99.90;;;3.81;100.00;101852.06;5030538;28;20021;-75
2023/04/09 04:00:35;;;;;;;;;;;2.80;99.90;;;3.69;100.00;101826.19;5014954;28;20457;-76
2023/04/09 04:03:23;;;;;;;201.32;38.30;;;2.80;99.90;;;3.82;100.00;101853.75;5033633;28;20361;-76
2023/04/09 04:06:08;;;;;;;125.93;35.05;;;2.80;99.90;;;3.87;100.00;101840.66;5034448;28;20044;-75
2023/04/09 04:08:47;;;;;;;111.35;34.80;;;2.80;99.90;;;3.79;100.00;101826.19;5013862;28;20042;-75
2023/04/09 04:11:15;;;;;;;175.03;40.87;;;2.80;99.90;;;3.83;100.00;101850.06;5044153;28;20027;-76
2023/04/09 04:13:40;;;;;;;165.55;40.20;;;2.80;99.90;;;3.78;100.00;101852.34;5032277;28;20021;-75
2023/04/09 04:16:09;;;;;;;181.82;41.38;;;2.80;99.90;;;3.76;100.00;101856.16;5045669;28;20038;-76
2023/04/09 04:18:36;;;;;;;224.75;43.80;;;2.80;99.90;;;3.60;100.00;101844.94;5030192;28;20048;-75
2023/04/09 04:21:02;;;;;;;229.85;45.05;;;2.80;99.90;;;3.71;100.00;101848.47;5028603;28;20045;-75
2023/04/09 04:23:29;;;;;;;135.30;39.80;;;2.70;99.90;;;3.74;100.00;101845.53;5029460;28;20358;-76
2023/04/09 04:26:09;;;;;;;72.80;34.35;;;2.80;99.90;;;3.75;100.00;101852.63;5043709;28;20083;-75
2023/04/09 04:28:39;;;;;;;98.95;37.55;;;2.80;99.90;;;3.69;100.00;101848.63;5022817;28;20498;-75
2023/04/09 04:31:09;;;;;;;143.77;38.40;;;2.80;99.90;;;3.69;100.00;101847.78;5023687;28;20037;-76
2023/04/09 04:33:37;;;;;;;157.00;38.40;;;2.80;99.90;;;3.71;100.00;101849.34;5043932;28;20387;-75
2023/04/09 04:36:11;;;;;;;124.78;35.78;;;2.80;99.90;;;3.79;100.00;101862.13;5029239;28;20036;-76
2023/04/09 04:38:41;;;;;;;277.63;42.80;;;2.80;99.90;;;3.80;100.00;101862.97;5040063;28;20121;-76
2023/04/09 04:41:12;;;;;;;174.95;40.00;;;2.80;99.90;;;3.40;100.00;101851.31;5030249;28;20401;-75
2023/04/09 04:43:43;;;;;;;207.95;41.95;;;2.80;99.90;;;3.37;100.00;101865.94;5026532;28;20022;-75
2023/04/09 04:46:17;;;;;;;197.95;41.28;;;2.70;99.90;;;3.33;100.00;101864.53;5029555;28;20484;-75
2023/04/09 04:48:42;;;;;;;168.30;41.97;;;2.70;99.90;;;3.28;100.00;101864.06;5028915;28;20060;-74
2023/04/09 04:51:09;;;;;;;185.18;43.92;;;2.70;99.90;;;3.25;100.00;101851.72;5029371;28;20120;-74
2023/04/09 04:53:41;;;;;;;176.32;43.03;;;2.70;99.90;;;3.29;100.00;101853.16;5023829;28;20034;-74
2023/04/09 04:56:14;;;;;;;128.40;41.10;;;2.60;99.90;;;3.57;100.00;101866.81;5030140;28;20029;-74
2023/04/09 04:58:47;;;;;;;232.75;45.55;;;2.70;99.90;;;3.38;100.00;101869.47;5022683;28;20033;-74
2023/04/09 05:01:14;;;;;;;221.32;45.72;;;2.70;99.90;;;3.46;100.00;101872.34;5026696;28;20098;-77
2023/04/09 05:03:42;;;;;;;256.50;48.55;;;2.70;99.90;;;3.56;100.00;101870.50;5030356;28;20037;-76
2023/04/09 05:06:28;;;;;;;280.05;48.45;;;2.70;99.90;;;3.51;100.00;101870.09;5030598;28;20080;-74
2023/04/09 05:08:57;;;;;;;220.98;46.50;;;2.70;99.90;;;3.53;100.00;101870.78;5041127;28;20076;-74
2023/04/09 05:11:24;;;;;;;192.52;47.10;;;2.80;99.90;;;3.50;100.00;101876.47;5034774;28;20480;-75
2023/04/09 05:13:50;;;;;;;197.05;45.90;;;2.80;99.90;;;3.67;100.00;101876.75;5029210;28;20046;-75
2023/04/09 05:16:17;;;;;;;177.77;44.88;;;2.80;99.90;;;3.63;100.00;101878.91;5027756;28;20044;-73
2023/04/09 05:18:47;;;;;;;278.58;48.28;;;2.80;99.90;;;3.76;100.00;101881.31;5024592;28;20064;-75
2023/04/09 05:21:12;;;;;;;240.30;47.80;;;2.90;99.90;;;3.74;100.00;101883.31;5047503;28;20476;-80
2023/04/09 05:23:41;;;;;;;197.25;44.47;;;2.90;99.90;;;3.44;100.00;101850.03;5030774;28;20473;-77
2023/04/09 05:26:07;;;;;;;179.23;45.90;;;2.90;99.90;;;3.62;100.00;101881.72;5029396;28;20034;-75
2023/04/09 05:28:46;;;;;;;231.73;48.97;;;2.90;99.90;;;3.78;100.00;101881.16;5027491;28;20033;-75
2023/04/09 05:31:16;;;;;;;315.52;52.13;;;2.90;99.90;;;3.83;100.00;101877.06;5031162;28;20044;-74
2023/04/09 05:33:51;;;;;;;217.27;46.97;;;3.00;99.90;;;3.86;100.00;101882.16;5026285;28;20068;-74
2023/04/09 05:36:22;;;;;;;211.63;46.00;;;3.00;99.90;;;3.81;100.00;101884.44;5028166;28;20045;-74
2023/04/09 05:38:48;;;;;;;202.75;47.70;;;3.00;99.90;;;3.86;100.00;101887.56;5044350;28;20041;-74
2023/04/09 05:41:14;;;;;;;224.30;50.95;;;3.00;99.90;;;3.72;100.00;101861.00;5034996;28;20038;-74
2023/04/09 05:43:50;;;;;;;191.65;47.13;;;3.00;99.90;;;3.90;100.00;101877.34;5028513;28;20032;-74
2023/04/09 05:46:16;;;;;;;184.52;48.95;;;3.10;99.90;;;3.74;100.00;101857.16;5028496;28;20431;-74
2023/04/09 05:48:43;;;;;;;204.10;49.45;;;3.10;99.90;;;3.99;100.00;101881.03;5029095;28;20033;-74
2023/04/09 05:51:09;;;;;;;231.63;50.08;;;3.20;99.90;;;4.00;100.00;101871.94;5028850;28;20042;-74
2023/04/09 05:53:36;;;;;;;167.88;49.20;;;3.20;99.90;;;4.14;100.00;101878.75;5024104;28;20485;-75
2023/04/09 05:56:01;;;;;;;186.88;47.90;;;3.30;99.90;;;4.07;100.00;101878.47;5035669;28;20037;-75
2023/04/09 05:58:43;;;;;;;233.85;50.80;;;3.40;99.90;;;4.24;100.00;101887.69;5026413;28;20487;-75
2023/04/09 06:01:09;;;;;;;258.77;53.65;;;3.40;99.90;;;4.27;100.00;101873.06;5028449;28;20037;-77
2023/04/09 06:03:35;;;;;;;181.90;52.00;;;3.60;99.90;;;4.35;100.00;101886.66;5009874;28;20529;-74
2023/04/09 06:06:00;;;;;;;161.52;50.80;;;3.60;99.90;;;4.41;100.00;101875.28;5029703;28;20483;-73
2023/04/09 06:08:26;;;;;;;170.90;53.47;;;3.60;99.90;;;4.58;100.00;101887.19;5027340;28;20160;-74
2023/04/09 06:10:52;;;;;;;173.50;54.30;;;3.70;99.90;;;4.82;100.00;101887.69;5043585;28;20037;-79
2023/04/09 06:13:18;;;;;;;158.23;52.03;;;3.80;99.90;;;4.93;100.00;101881.25;5043062;28;20567;-73
2023/04/09 06:15:44;;;;;;;155.27;53.00;;;3.90;99.90;;;4.88;100.00;101890.63;5024763;28;20042;-74
2023/04/09 06:18:10;;;;;;;169.07;52.78;;;3.90;99.90;;;5.00;100.00;101890.44;5028953;28;20041;-74
2023/04/09 06:20:35;;;;;;;155.30;53.22;;;4.10;99.90;;;5.08;100.00;101890.53;5029142;28;20118;-78
2023/04/09 06:23:01;;;;;;;150.13;52.38;;;4.20;99.90;;;5.27;100.00;101889.59;5028613;28;20056;-74
2023/04/09 06:25:27;;;;;;;136.95;49.55;;;4.30;99.90;;;5.46;100.00;101882.34;5028526;28;20095;-75
2023/04/09 06:27:52;;;;;;;147.45;51.08;;;4.40;99.90;;;5.69;100.00;101890.88;5027444;28;20030;-74
2023/04/09 06:30:18;;;;;;;144.05;49.65;;;4.60;99.90;;;5.94;100.00;101893.81;5028481;28;20045;-74
2023/04/09 06:32:44;;;;;;;131.23;49.05;;;4.70;99.90;;;6.12;100.00;101896.56;5027439;28;20482;-75
2023/04/09 06:35:10;;;;;;;129.32;48.55;;;4.90;99.90;;;6.23;100.00;101908.16;5024605;28;20034;-75
2023/04/09 06:37:36;;;;;;;129.82;46.40;;;5.00;99.90;;;6.29;100.00;101908.38;5022332;28;20425;-75
2023/04/09 06:40:02;;;;;;;130.15;46.20;;;5.10;99.90;;;6.18;100.00;101895.06;5027696;28;20493;-75
2023/04/09 06:42:27;;;;;;;130.02;45.45;;;5.10;99.90;;;6.33;100.00;101900.78;5028678;28;20048;-75
2023/04/09 06:45:07;;;;;;;116.33;44.43;;;5.20;99.90;;;6.59;100.00;101916.19;5036072;28;20030;-76
2023/04/09 06:47:36;;;;;;;108.03;41.15;;;5.30;99.90;;;6.64;100.00;101903.03;5019850;28;20065;-75
2023/04/09 06:50:05;;;;;;;93.93;39.08;;;5.30;99.90;;;6.75;100.00;101912.75;5026976;28;20092;-76
2023/04/09 06:52:31;;;;;;;91.35;37.90;;;5.40;99.90;;;6.74;100.00;101911.03;5028216;28;20041;-77
2023/04/09 06:54:56;;;;;;;90.35;37.33;;;5.40;99.90;;;6.87;100.00;101907.88;5022723;28;20041;-76
2023/04/09 06:57:22;;;;;;;86.60;36.90;;;5.60;99.90;;;7.02;100.00;101913.56;5027915;28;20142;-76
2023/04/09 06:59:48;;;;;;;76.05;34.85;;;5.70;99.90;;;7.14;100.00;101912.28;5028576;28;20397;-76
2023/04/09 07:02:13;;;;;;;72.03;34.58;;;5.80;99.90;;;7.07;100.00;101908.53;5026021;28;20049;-76
2023/04/09 07:04:40;;;;;;;76.20;33.55;;;5.70;99.90;;;7.25;100.00;101915.69;5037901;28;20084;-76
2023/04/09 07:07:05;;;;;;;77.25;33.03;;;5.70;99.90;;;7.45;100.00;101916.31;5028707;28;20112;-76
2023/04/09 07:09:31;;;;;;;75.60;33.47;;;5.80;99.90;;;7.69;100.00;101920.06;5027450;28;20521;-75
2023/04/09 07:11:57;;;;;;;66.50;31.85;;;6.00;99.90;;;7.76;100.00;101924.69;5011591;28;20044;-75
2023/04/09 07:14:22;;;;;;;65.38;32.15;;;6.10;99.90;;;8.00;100.00;101922.19;5027623;28;20551;-75
2023/04/09 07:16:48;;;;;;;60.83;31.42;;;6.30;99.90;;;8.03;100.00;101905.53;5024971;28;20493;-76
2023/04/09 07:19:14;;;;;;;61.97;30.60;;;6.50;99.90;;;8.31;100.00;101925.06;5028730;28;20061;-76
2023/04/09 07:21:40;;;;;;;56.60;30.75;;;6.70;99.90;;;8.54;100.00;101929.84;5028486;28;20498;-75
2023/04/09 07:24:06;;;;;;;50.92;26.27;;;6.90;99.90;;;8.47;100.00;101918.75;5027684;28;20037;-75
2023/04/09 07:26:32;;;;;;;50.90;26.05;;;7.00;99.90;;;8.50;100.00;101923.03;5029124;28;20115;-75
2023/04/09 07:28:58;;;;;;;49.75;26.48;;;6.90;99.90;;;8.41;100.00;101914.00;5031541;28;20036;-75
2023/04/09 07:31:24;;;;;;;50.67;25.70;;;6.90;99.90;;;8.37;100.00;101912.66;5027188;28;20041;-75
2023/04/09 07:33:50;;;;;;;45.70;25.52;;;6.90;99.90;;;8.39;100.00;101916.06;5028710;28;20025;-76
2023/04/09 07:36:15;;;;;;;46.28;24.33;;;6.90;99.90;;;8.53;100.00;101917.25;5031032;28;20500;-76
2023/04/09 07:38:42;;;;;;;46.45;25.00;;;7.10;99.90;;;8.62;100.00;101904.50;5030049;28;20037;-75
2023/04/09 07:41:10;;;;;;;51.53;26.30;;;7.30;99.90;;;8.61;100.00;101906.34;5031536;28;20531;-75
2023/04/09 07:43:36;;;;;;;46.63;25.38;;;7.40;99.90;;;8.84;100.00;101905.63;5031366;28;20036;-75
2023/04/09 07:46:01;;;;;;;44.95;24.75;;;7.60;99.90;;;8.84;100.00;101913.78;5013913;28;20045;-75
2023/04/09 07:48:27;;;;;;;45.65;24.48;;;7.70;99.90;;;8.98;100.00;101920.38;5046195;28;20037;-75
2023/04/09 07:50:53;;;;;;;43.13;24.05;;;7.80;99.90;;;9.03;100.00;101911.69;5025879;28;20057;-76
2023/04/09 07:53:19;;;;;;;46.05;23.60;;;7.90;99.90;;;8.72;100.00;101912.47;5031409;28;20507;-77
2023/04/09 07:55:45;;;;;;;46.50;23.38;;;7.90;99.90;;;8.65;100.00;101915.03;5031538;28;20030;-76
2023/04/09 07:58:11;;;;;;;44.38;23.50;;;7.80;99.90;;;8.40;100.00;101920.47;5035309;28;20393;-75
2023/04/09 08:00:36;;;;;;;44.90;23.50;;;7.70;99.90;;;7.95;100.00;101919.97;5026469;28;20049;-75
2023/04/09 08:03:02;;;;;;;46.25;24.35;;;7.40;99.90;;;7.96;100.00;101915.38;5030793;28;20041;-75
2023/04/09 08:05:29;;;;;;;45.67;23.10;;;7.30;99.90;;;7.90;100.00;101939.47;5027404;28;20108;-75
2023/04/09 08:07:55;;;;;;;47.53;23.35;;;7.30;99.90;;;7.86;100.00;101910.94;5021571;28;20049;-75
2023/04/09 08:10:21;;;;;;;44.50;23.30;;;7.20;99.90;;;7.81;100.00;101917.88;5023761;28;20072;-75
2023/04/09 08:12:47;;;;;;;45.28;23.45;;;7.30;99.90;;;7.90;100.00;101920.44;5028936;28;20030;-75
2023/04/09 08:15:13;;;;;;;46.47;23.10;;;7.30;99.90;;;7.99;100.00;101925.91;5028396;28;20048;-75
2023/04/09 08:17:39;;;;;;;46.40;23.15;;;7.30;99.90;;;7.90;100.00;101915.00;5027134;28;20038;-75
2023/04/09 08:20:06;;;;;;;41.85;21.55;;;7.30;99.90;;;7.73;100.00;101924.19;5025975;28;20084;-75
2023/04/09 08:22:32;;;;;;;44.95;22.35;;;7.30;99.90;;;7.85;100.00;101930.97;5030298;28;20443;-76
2023/04/09 08:24:57;;;;;;;46.90;23.38;;;7.30;99.90;;;8.12;100.00;101923.53;5026729;28;20029;-76
2023/04/09 08:27:24;;;;;;;47.20;23.75;;;7.60;99.90;;;8.56;100.00;101883.44;5026790;28;20029;-75
2023/04/09 08:29:49;;;;;;;43.33;23.23;;;7.90;99.90;;;9.59;100.00;101914.34;5042328;28;20029;-76
2023/04/09 08:32:15;;;;;;;43.53;22.48;;;8.40;99.90;;;10.10;98.86;101907.53;5030341;28;20481;-76
2023/04/09 08:34:41;;;;;;;43.35;23.60;;;8.90;99.90;;;10.78;92.57;101895.81;5030541;28;20120;-76
2023/04/09 08:37:07;;;;;;;42.17;22.77;;;9.50;99.90;;;11.20;88.82;101901.63;5032003;28;20127;-76
2023/04/09 08:39:33;;;;;;;43.83;22.90;;;9.80;99.90;;;11.49;83.81;101894.41;5024994;28;20034;-76
2023/04/09 08:42:00;;;;;;;41.42;22.67;;;10.20;99.90;;;11.42;83.54;101893.50;5029967;28;20033;-75
2023/04/09 08:44:27;;;;;;;39.35;22.73;;;10.30;99.90;;;11.80;81.26;101887.81;5025949;28;20033;-76
2023/04/09 08:46:53;;;;;;;41.28;21.95;;;10.60;99.90;;;12.01;80.48;101897.09;5030536;28;20516;-77
2023/04/09 08:49:19;;;;;;;36.40;20.52;;;10.80;99.90;;;12.10;80.78;101904.13;5031055;28;20041;-76
2023/04/09 08:51:49;;;;;;;37.40;20.42;;;11.10;99.90;;;12.23;78.41;101898.78;5030397;28;20029;-75
2023/04/09 08:54:18;;;;;;;36.35;20.80;;;11.30;99.90;;;12.13;77.40;101892.78;5029289;28;20041;-76
2023/04/09 08:56:46;;;;;;;37.90;20.98;;;11.30;99.90;;;11.97;78.17;101877.44;5029970;28;20033;-76
2023/04/09 08:59:18;;;;;;;47.47;22.92;;;11.10;99.90;;;11.89;78.94;101908.50;5020031;28;20528;-76
2023/04/09 09:01:46;;;;;;;50.22;27.27;;;11.00;99.90;;;11.06;78.81;101897.88;5045285;28;20045;-76
2023/04/09 09:04:12;;;;;;;53.58;28.08;;;10.60;99.90;;;10.52;86.16;101915.34;5026103;28;20599;-76
2023/04/09 09:06:40;;;;;;;54.05;29.67;;;10.20;99.90;;;10.57;86.59;101888.34;5030639;28;20120;-75
2023/04/09 09:09:15;;;;;;;54.55;29.83;;;10.00;99.90;;;10.74;84.61;101875.38;5029246;28;20088;-76
2023/04/09 09:11:43;;;;;;;45.08;23.88;;;10.00;99.90;;;10.83;87.20;101906.16;5014314;28;20033;-76
2023/04/09 09:14:11;;;;;;;50.60;26.75;;;10.00;99.90;;;10.71;85.72;101898.44;5029490;28;20041;-76
2023/04/09 09:16:42;;;;;;;50.05;28.20;;;10.00;99.90;;;10.14;87.06;101895.22;5024524;28;20554;-76
2023/04/09 09:19:13;;;;;;;48.97;25.15;;;9.80;99.90;;;9.68;91.11;101903.38;5031149;28;20037;-76
2023/04/09 09:21:39;;;;;;;46.90;24.77;;;9.50;99.90;;;9.87;93.45;101908.38;5031321;28;20038;-75
2023/04/09 09:24:16;;;;;;;48.17;26.75;;;9.30;99.90;;;10.01;91.41;101903.13;5028549;28;20037;-76
2023/04/09 09:26:42;;;;;;;48.15;24.98;;;9.50;99.90;;;9.56;92.40;101897.50;5030406;28;20455;-76
2023/04/09 09:29:08;;;;;;;38.70;20.95;;;9.30;99.90;;;9.21;91.90;101885.09;5030598;28;20045;-77
2023/04/09 09:31:48;;;;;;;39.08;20.67;;;9.20;99.90;;;9.33;91.88;101904.59;5029586;28;20045;-76
2023/04/09 09:34:16;;;;;;;40.33;22.23;;;9.00;99.90;;;9.77;92.74;101902.28;5030311;28;20042;-75
2023/04/09 09:36:42;;;;;;;43.22;22.13;;;9.10;99.90;;;9.74;91.48;101897.19;5027685;28;20041;-76
2023/04/09 09:39:08;;;;;;;37.83;21.15;;;9.30;99.90;;;9.95;91.35;101898.41;5035517;28;20041;-75
2023/04/09 09:41:35;;;;;;;38.85;21.55;;;9.40;99.90;;;10.53;86.95;101887.03;5030086;28;20037;-77
2023/04/09 09:44:03;;;;;;;38.45;22.73;;;9.60;99.90;;;10.31;85.61;101885.00;5029655;28;20124;-77
2023/04/09 09:46:33;;;;;;;38.67;22.00;;;9.70;99.90;;;10.53;85.96;101897.94;5026849;28;20087;-79
2023/04/09 09:48:59;;;;;;;34.70;20.17;;;9.70;99.90;;;10.58;83.67;101884.59;5029857;28;20056;-79
2023/04/09 09:51:28;;;;;;;31.90;18.83;;;9.90;99.90;;;10.62;83.18;101894.13;5025798;28;20045;-78
2023/04/09 09:53:58;;;;;;;33.58;19.77;;;9.90;99.90;;;10.61;83.39;101892.44;5027794;28;20073;-77
2023/04/09 09:56:33;;;;;;;34.33;19.30;;;9.90;99.90;;;11.35;81.70;101894.25;5028486;28;20148;-79
2023/04/09 09:59:25;;;;;;;33.08;18.27;;;10.30;99.90;;;11.45;78.51;101890.38;5028575;28;20091;-79
2023/04/09 10:02:03;;;;;;;28.48;17.77;;;10.60;99.90;;;11.25;76.53;101888.25;5027319;28;20047;-80
2023/04/09 10:04:38;;;;;;;29.42;17.35;;;10.70;99.90;;;11.55;77.13;101888.19;5024919;28;20037;-79
2023/04/09 10:07:06;;;;;;;36.30;19.08;;;10.70;99.90;;;11.43;77.29;101889.72;5028799;28;20045;-78
2023/04/09 10:09:40;;;;;;;32.67;19.17;;;10.70;99.90;;;11.22;76.81;101880.44;5027712;28;20416;-80
2023/04/09 10:12:08;;;;;;;30.52;17.90;;;10.70;99.90;;;11.31;77.21;101890.22;5029556;28;20038;-80